createdAt,value
2022-09-24T00:00:23.067Z,5.83
2022-09-24T00:01:26.251Z,5.60
2022-09-24T00:02:27.713Z,5.30
2022-09-24T00:03:30.920Z,5.10
2022-09-24T00:04:32.229Z,5.57
2022-09-24T00:05:37.046Z,5.60
2022-09-24T00:06:42.443Z,5.20
2022-09-24T00:07:43.741Z,5.47
2022-09-24T00:08:45.958Z,5.23
2022-09-24T00:09:47.930Z,5.60
2022-09-24T00:10:49.208Z,5.33
2022-09-24T00:11:53.254Z,5.30
2022-09-24T00:12:54.619Z,5.30
2022-09-24T00:13:56.747Z,5.50
2022-09-24T00:14:58.027Z,4.93
2022-09-24T00:16:02.011Z,5.37
2022-09-24T00:17:03.381Z,5.30
2022-09-24T00:18:05.629Z,5.53
2022-09-24T00:19:07.015Z,5.13
2022-09-24T00:20:08.550Z,5.17
2022-09-24T00:21:17.172Z,5.60
2022-09-24T00:22:18.457Z,5.00
2022-09-24T00:23:19.728Z,5.53
2022-09-24T00:24:39.925Z,5.33
2022-09-24T00:26:03.318Z,5.23
2022-09-24T00:27:06.037Z,5.53
2022-09-24T00:28:07.481Z,5.00
2022-09-24T00:29:09.965Z,5.07
2022-09-24T00:30:11.450Z,5.00
2022-09-24T00:31:12.763Z,4.87
2022-09-24T00:32:14.083Z,4.83
2022-09-24T00:33:15.413Z,5.43
2022-09-24T00:34:17.367Z,5.30
2022-09-24T00:35:18.775Z,5.57
2022-09-24T00:36:20.955Z,5.60
2022-09-24T00:37:22.320Z,4.93
2022-09-24T00:38:24.122Z,5.03
2022-09-24T00:39:25.460Z,5.13
2022-09-24T00:40:27.798Z,5.20
2022-09-24T00:41:30.256Z,5.40
2022-09-24T00:42:32.535Z,5.33
2022-09-24T00:43:35.694Z,4.97
2022-09-24T00:44:42.736Z,5.40
2022-09-24T00:45:44.017Z,5.57
2022-09-24T00:46:45.347Z,4.90
2022-09-24T00:47:47.358Z,5.10
2022-09-24T00:48:50.557Z,5.47
2022-09-24T00:49:51.946Z,5.13
2022-09-24T00:50:53.445Z,5.03
2022-09-24T00:51:54.845Z,5.13
2022-09-24T00:52:58.485Z,5.50
2022-09-24T00:54:01.372Z,4.87
2022-09-24T00:55:02.746Z,5.53
2022-09-24T00:56:04.610Z,5.27
2022-09-24T00:57:06.497Z,4.97
2022-09-24T00:58:08.519Z,5.07
2022-09-24T00:59:11.483Z,4.93
2022-09-24T01:00:13.271Z,4.83
2022-09-24T01:01:15.935Z,5.17
2022-09-24T01:02:19.589Z,5.00
2022-09-24T01:03:23.096Z,5.60
2022-09-24T01:04:26.275Z,5.17
2022-09-24T01:05:27.687Z,5.20
2022-09-24T01:06:29.041Z,5.40
2022-09-24T01:07:30.435Z,4.90
2022-09-24T01:08:31.751Z,5.20
2022-09-24T01:09:33.763Z,4.97
2022-09-24T01:10:53.492Z,5.07
2022-09-24T01:12:00.904Z,5.00
2022-09-24T01:13:10.682Z,5.23
2022-09-24T01:14:27.203Z,5.27
2022-09-24T01:15:32.452Z,5.37
2022-09-24T01:16:45.130Z,5.60
2022-09-24T01:18:04.519Z,5.13
2022-09-24T01:19:11.748Z,5.00
2022-09-24T01:20:25.064Z,5.60
2022-09-24T01:21:34.992Z,5.67
2022-09-24T01:22:42.385Z,5.37
2022-09-24T01:23:49.328Z,5.20
2022-09-24T01:25:01.893Z,4.90
2022-09-24T01:26:10.483Z,5.00
2022-09-24T01:27:17.876Z,5.30
2022-09-24T01:28:31.719Z,4.70
2022-09-24T01:29:46.086Z,5.50
2022-09-24T01:30:50.331Z,4.90
2022-09-24T01:32:02.008Z,4.47
2022-09-24T01:33:04.557Z,4.73
2022-09-24T01:34:05.930Z,4.87
2022-09-24T01:35:10.313Z,4.70
2022-09-24T01:36:12.913Z,4.70
2022-09-24T01:37:16.270Z,5.00
2022-09-24T01:38:19.840Z,4.90
2022-09-24T01:39:21.928Z,5.17
2022-09-24T01:40:25.284Z,4.87
2022-09-24T01:41:26.753Z,4.77
2022-09-24T01:42:29.331Z,4.73
2022-09-24T01:43:32.343Z,4.40
2022-09-24T01:44:34.691Z,4.57
2022-09-24T01:45:38.550Z,4.93
2022-09-24T01:46:40.789Z,4.80
2022-09-24T01:47:43.452Z,4.73
2022-09-24T01:48:45.217Z,5.03
2022-09-24T01:49:46.724Z,5.17
2022-09-24T01:50:55.214Z,5.17
2022-09-24T01:51:58.679Z,4.60
2022-09-24T01:52:59.960Z,4.77
2022-09-24T01:54:07.160Z,5.07
2022-09-24T01:55:10.156Z,5.00
2022-09-24T01:56:32.119Z,4.70
2022-09-24T01:57:44.902Z,4.70
2022-09-24T01:58:49.805Z,4.97
2022-09-24T01:59:55.735Z,5.00
2022-09-24T02:01:00.326Z,4.60
2022-09-24T02:02:01.796Z,4.50
2022-09-24T02:03:09.842Z,4.67
2022-09-24T02:04:16.679Z,4.57
2022-09-24T02:05:39.501Z,5.00
2022-09-24T02:06:44.535Z,4.80
2022-09-24T02:07:50.683Z,5.40
2022-09-24T02:08:52.032Z,4.97
2022-09-24T02:09:53.321Z,4.37
2022-09-24T02:11:01.573Z,4.90
2022-09-24T02:12:07.038Z,4.67
2022-09-24T02:13:12.702Z,4.90
2022-09-24T02:14:14.662Z,5.07
2022-09-24T02:15:18.712Z,4.47
2022-09-24T02:16:21.971Z,4.90
2022-09-24T02:17:25.158Z,5.00
2022-09-24T02:18:28.855Z,5.20
2022-09-24T02:19:31.529Z,5.20
2022-09-24T02:20:34.606Z,5.03
2022-09-24T02:21:36.742Z,5.00
2022-09-24T02:22:38.625Z,5.23
2022-09-24T02:23:43.082Z,5.03
2022-09-24T02:24:53.012Z,5.10
2022-09-24T02:25:58.516Z,4.83
2022-09-24T02:27:00.102Z,4.90
2022-09-24T02:28:03.043Z,5.00
2022-09-24T02:29:05.271Z,5.07
2022-09-24T02:30:07.375Z,4.70
2022-09-24T02:31:11.010Z,5.00
2022-09-24T02:32:14.370Z,5.10
2022-09-24T02:33:34.885Z,4.77
2022-09-24T02:34:38.779Z,4.50
2022-09-24T02:35:40.695Z,4.50
2022-09-24T02:36:43.167Z,4.40
2022-09-24T02:37:44.459Z,5.00
2022-09-24T02:38:48.916Z,4.40
2022-09-24T02:39:50.790Z,5.13
2022-09-24T02:40:53.380Z,4.57
2022-09-24T02:41:55.281Z,4.47
2022-09-24T02:42:56.580Z,4.80
2022-09-24T02:43:58.233Z,4.77
2022-09-24T02:45:00.432Z,4.43
2022-09-24T02:46:02.040Z,5.07
2022-09-24T02:47:03.365Z,4.73
2022-09-24T02:48:04.648Z,4.97
2022-09-24T02:49:05.934Z,4.73
2022-09-24T02:50:07.472Z,4.87
2022-09-24T02:51:08.764Z,4.40
2022-09-24T02:52:10.254Z,4.80
2022-09-24T02:53:11.553Z,4.67
2022-09-24T02:54:12.930Z,4.70
2022-09-24T02:55:14.188Z,4.33
2022-09-24T02:56:15.491Z,4.67
2022-09-24T02:57:20.018Z,4.60
2022-09-24T02:58:21.312Z,4.67
2022-09-24T02:59:22.668Z,4.73
2022-09-24T03:00:23.979Z,5.13
2022-09-24T03:01:25.373Z,4.60
2022-09-24T03:02:26.773Z,4.90
2022-09-24T03:03:28.433Z,4.50
2022-09-24T03:04:30.667Z,4.57
2022-09-24T03:05:32.001Z,4.87
2022-09-24T03:06:33.573Z,5.20
2022-09-24T03:07:34.853Z,4.40
2022-09-24T03:08:36.328Z,5.07
2022-09-24T03:09:37.627Z,5.13
2022-09-24T03:10:39.381Z,4.57
2022-09-24T03:11:40.997Z,4.97
2022-09-24T03:12:43.671Z,4.70
2022-09-24T03:13:45.219Z,4.70
2022-09-24T03:14:46.491Z,4.93
2022-09-24T03:15:47.814Z,4.90
2022-09-24T03:16:49.114Z,4.97
2022-09-24T03:17:50.414Z,4.73
2022-09-24T03:18:51.714Z,4.87
2022-09-24T03:19:53.080Z,5.23
2022-09-24T03:20:58.466Z,4.70
2022-09-24T03:21:59.840Z,5.13
2022-09-24T03:23:01.149Z,5.10
2022-09-24T03:24:03.672Z,4.67
2022-09-24T03:25:05.259Z,4.80
2022-09-24T03:26:06.571Z,5.10
2022-09-24T03:27:07.834Z,4.93
2022-09-24T03:28:09.179Z,5.10
2022-09-24T03:29:10.641Z,4.70
2022-09-24T03:30:31.226Z,4.90
2022-09-24T03:31:32.661Z,4.87
2022-09-24T03:32:34.410Z,4.70
2022-09-24T03:33:36.935Z,4.90
2022-09-24T03:34:38.257Z,5.00
2022-09-24T03:35:39.565Z,4.80
2022-09-24T03:36:40.844Z,4.87
2022-09-24T03:37:47.016Z,4.80
2022-09-24T03:38:51.642Z,4.93
2022-09-24T03:39:52.959Z,5.10
2022-09-24T03:40:54.355Z,4.70
2022-09-24T03:41:55.711Z,4.63
2022-09-24T03:42:57.000Z,4.60
2022-09-24T03:43:58.298Z,4.80
2022-09-24T03:44:59.680Z,4.67
2022-09-24T03:46:01.023Z,5.10
2022-09-24T03:47:02.401Z,5.23
2022-09-24T03:48:06.086Z,4.83
2022-09-24T03:49:07.363Z,4.73
2022-09-24T03:50:11.881Z,4.83
2022-09-24T03:51:18.794Z,5.00
2022-09-24T03:52:20.173Z,5.07
2022-09-24T03:53:21.798Z,4.70
2022-09-24T03:54:23.073Z,4.50
2022-09-24T03:55:24.423Z,4.90
2022-09-24T03:56:25.721Z,5.47
2022-09-24T03:57:27.016Z,5.50
2022-09-24T03:58:29.384Z,5.20
2022-09-24T03:59:30.717Z,5.23
2022-09-24T04:00:32.047Z,4.77
2022-09-24T04:01:35.334Z,5.57
2022-09-24T04:02:36.767Z,5.40
2022-09-24T04:03:38.166Z,5.40
2022-09-24T04:04:39.521Z,5.13
2022-09-24T04:05:42.075Z,5.10
2022-09-24T04:06:44.656Z,5.67
2022-09-24T04:07:45.989Z,5.37
2022-09-24T04:08:47.487Z,5.10
2022-09-24T04:09:48.792Z,4.83
2022-09-24T04:10:50.810Z,4.87
2022-09-24T04:11:55.020Z,4.77
2022-09-24T04:12:56.738Z,4.57
2022-09-24T04:13:58.693Z,5.03
2022-09-24T04:15:02.469Z,4.83
2022-09-24T04:16:03.942Z,4.80
2022-09-24T04:17:05.317Z,5.10
2022-09-24T04:18:07.758Z,4.77
2022-09-24T04:19:09.069Z,5.17
2022-09-24T04:20:12.928Z,4.70
2022-09-24T04:21:14.235Z,5.40
2022-09-24T04:22:15.547Z,5.80
2022-09-24T04:23:16.873Z,5.33
2022-09-24T04:24:18.222Z,4.90
2022-09-24T04:25:20.057Z,5.23
2022-09-24T04:26:21.326Z,5.20
2022-09-24T04:27:22.591Z,4.70
2022-09-24T04:28:25.165Z,5.10
2022-09-24T04:29:26.436Z,5.33
2022-09-24T04:30:28.498Z,5.20
2022-09-24T04:31:29.864Z,5.17
2022-09-24T04:32:31.271Z,5.03
2022-09-24T04:33:32.615Z,5.00
2022-09-24T04:34:33.977Z,5.30
2022-09-24T04:35:36.152Z,5.27
2022-09-24T04:36:37.506Z,5.13
2022-09-24T04:37:38.881Z,5.80
2022-09-24T04:38:40.260Z,6.23
2022-09-24T04:39:42.135Z,6.07
2022-09-24T04:40:44.632Z,6.13
2022-09-24T04:41:47.079Z,5.87
2022-09-24T04:42:48.433Z,6.40
2022-09-24T04:43:51.368Z,5.50
2022-09-24T04:44:56.027Z,6.00
2022-09-24T04:45:59.346Z,5.50
2022-09-24T04:47:02.083Z,5.73
2022-09-24T04:48:03.426Z,5.97
2022-09-24T04:49:04.794Z,5.53
2022-09-24T04:50:08.110Z,4.90
2022-09-24T04:51:10.409Z,5.20
2022-09-24T04:52:14.945Z,5.40
2022-09-24T04:53:17.202Z,5.83
2022-09-24T04:54:18.688Z,5.43
2022-09-24T04:55:23.177Z,5.73
2022-09-24T04:56:24.517Z,5.60
2022-09-24T04:57:26.465Z,5.30
2022-09-24T04:58:28.369Z,5.70
2022-09-24T04:59:29.795Z,5.73
2022-09-24T05:00:33.261Z,5.50
2022-09-24T05:01:34.692Z,6.40
2022-09-24T05:02:36.140Z,6.03
2022-09-24T05:03:37.537Z,5.50
2022-09-24T05:04:39.000Z,5.90
2022-09-24T05:05:40.264Z,5.70
2022-09-24T05:06:41.634Z,5.77
2022-09-24T05:07:44.564Z,6.60
2022-09-24T05:08:46.042Z,6.00
2022-09-24T05:09:47.310Z,5.80
2022-09-24T05:10:48.689Z,5.97
2022-09-24T05:11:49.953Z,6.20
2022-09-24T05:12:51.425Z,6.23
2022-09-24T05:13:52.713Z,5.77
2022-09-24T05:14:54.104Z,6.20
2022-09-24T05:15:55.557Z,5.63
2022-09-24T05:16:57.332Z,5.73
2022-09-24T05:17:58.699Z,6.47
2022-09-24T05:19:00.097Z,5.70
2022-09-24T05:20:01.496Z,5.87
2022-09-24T05:21:03.006Z,5.53
2022-09-24T05:22:04.288Z,5.87
2022-09-24T05:23:05.952Z,5.40
2022-09-24T05:24:07.442Z,5.80
2022-09-24T05:25:08.856Z,5.73
2022-09-24T05:26:28.922Z,5.20
2022-09-24T05:27:30.262Z,5.50
2022-09-24T05:28:33.169Z,5.57
2022-09-24T05:29:34.495Z,5.40
2022-09-24T05:30:35.871Z,5.90
2022-09-24T05:31:37.236Z,6.30
2022-09-24T05:32:38.641Z,5.20
2022-09-24T05:33:40.073Z,5.60
2022-09-24T05:34:42.800Z,5.93
2022-09-24T05:35:44.065Z,5.97
2022-09-24T05:36:45.379Z,5.80
2022-09-24T05:37:48.973Z,6.23
2022-09-24T05:38:50.234Z,6.53
2022-09-24T05:39:51.595Z,6.40
2022-09-24T05:40:53.146Z,6.10
2022-09-24T05:41:54.976Z,6.33
2022-09-24T05:43:00.735Z,6.53
2022-09-24T05:44:02.585Z,6.37
2022-09-24T05:45:03.977Z,6.23
2022-09-24T05:46:06.344Z,6.27
2022-09-24T05:47:08.811Z,6.27
2022-09-24T05:48:10.357Z,6.63
2022-09-24T05:49:12.135Z,6.70
2022-09-24T05:50:13.681Z,7.13
2022-09-24T05:51:14.964Z,6.53
2022-09-24T05:52:16.267Z,6.47
2022-09-24T05:53:17.604Z,6.97
2022-09-24T05:54:19.194Z,6.90
2022-09-24T05:55:20.504Z,6.63
2022-09-24T05:56:21.848Z,6.73
2022-09-24T05:57:23.126Z,6.77
2022-09-24T05:58:24.808Z,6.70
2022-09-24T05:59:26.085Z,7.40
2022-09-24T06:00:27.394Z,7.70
2022-09-24T06:01:31.838Z,7.30
2022-09-24T06:02:33.162Z,6.87
2022-09-24T06:03:34.484Z,7.30
2022-09-24T06:04:35.798Z,6.83
2022-09-24T06:05:37.094Z,6.77
2022-09-24T06:06:38.425Z,6.10
2022-09-24T06:07:39.694Z,6.07
2022-09-24T06:08:41.013Z,6.10
2022-09-24T06:09:42.283Z,6.23
2022-09-24T06:10:45.455Z,6.17
2022-09-24T06:11:49.083Z,6.37
2022-09-24T06:12:52.701Z,6.10
2022-09-24T06:13:54.074Z,6.47
2022-09-24T06:14:55.470Z,6.27
2022-09-24T06:16:00.222Z,5.90
2022-09-24T06:17:01.636Z,5.90
2022-09-24T06:18:03.007Z,5.73
2022-09-24T06:19:04.324Z,5.90
2022-09-24T06:20:05.819Z,5.97
2022-09-24T06:21:08.297Z,5.73
2022-09-24T06:22:09.567Z,6.00
2022-09-24T06:23:10.841Z,6.10
2022-09-24T06:24:12.168Z,6.00
2022-09-24T06:25:13.425Z,5.93
2022-09-24T06:26:14.882Z,5.90
2022-09-24T06:27:16.189Z,5.73
2022-09-24T06:28:17.514Z,6.27
2022-09-24T06:29:18.941Z,6.67
2022-09-24T06:30:20.212Z,6.13
2022-09-24T06:31:21.599Z,6.70
2022-09-24T06:32:23.491Z,6.73
2022-09-24T06:33:24.822Z,6.33
2022-09-24T06:34:26.173Z,6.53
2022-09-24T06:35:27.543Z,6.30
2022-09-24T06:36:29.218Z,6.83
2022-09-24T06:37:30.502Z,6.03
2022-09-24T06:38:32.130Z,6.37
2022-09-24T06:39:33.378Z,5.77
2022-09-24T06:40:37.294Z,5.93
2022-09-24T06:41:39.084Z,5.67
2022-09-24T06:42:44.648Z,5.57
2022-09-24T06:43:46.202Z,5.43
2022-09-24T06:44:47.915Z,5.60
2022-09-24T06:45:49.257Z,5.97
2022-09-24T06:46:51.176Z,5.60
2022-09-24T06:47:56.268Z,5.70
2022-09-24T06:48:57.578Z,5.30
2022-09-24T06:49:58.846Z,5.80
2022-09-24T06:51:00.189Z,5.67
2022-09-24T06:52:02.066Z,5.83
2022-09-24T06:53:05.247Z,5.50
2022-09-24T06:54:06.561Z,5.97
2022-09-24T06:55:08.064Z,6.30
2022-09-24T06:56:10.044Z,5.83
2022-09-24T06:57:11.409Z,5.50
2022-09-24T06:58:13.950Z,6.07
2022-09-24T06:59:15.213Z,5.20
2022-09-24T07:00:16.914Z,5.43
2022-09-24T07:01:18.325Z,5.83
2022-09-24T07:02:19.741Z,5.73
2022-09-24T07:03:21.635Z,5.73
2022-09-24T07:04:22.945Z,5.67
2022-09-24T07:05:24.246Z,5.13
2022-09-24T07:06:25.544Z,5.83
2022-09-24T07:07:29.998Z,6.03
2022-09-24T07:08:31.693Z,5.57
2022-09-24T07:09:33.092Z,5.87
2022-09-24T07:10:34.490Z,6.30
2022-09-24T07:11:36.582Z,5.90
2022-09-24T07:12:37.845Z,5.87
2022-09-24T07:13:39.127Z,5.60
2022-09-24T07:14:40.403Z,5.70
2022-09-24T07:15:42.690Z,5.77
2022-09-24T07:16:46.982Z,5.13
2022-09-24T07:17:48.254Z,5.53
2022-09-24T07:18:49.511Z,5.53
2022-09-24T07:19:51.197Z,5.50
2022-09-24T07:20:56.088Z,5.50
2022-09-24T07:21:57.807Z,6.27
2022-09-24T07:22:59.140Z,6.23
2022-09-24T07:24:00.516Z,5.50
2022-09-24T07:25:01.931Z,5.43
2022-09-24T07:26:03.276Z,5.90
2022-09-24T07:27:05.335Z,5.70
2022-09-24T07:28:13.318Z,5.90
2022-09-24T07:29:14.646Z,6.03
2022-09-24T07:30:16.396Z,6.37
2022-09-24T07:31:17.883Z,6.07
2022-09-24T07:32:19.328Z,6.20
2022-09-24T07:33:20.713Z,5.90
2022-09-24T07:34:22.141Z,6.27
2022-09-24T07:35:27.305Z,6.53
2022-09-24T07:36:31.313Z,5.90
2022-09-24T07:37:34.029Z,5.93
2022-09-24T07:38:36.311Z,6.20
2022-09-24T07:39:38.448Z,6.20
2022-09-24T07:40:40.408Z,6.50
2022-09-24T07:41:42.484Z,6.90
2022-09-24T07:42:48.368Z,7.20
2022-09-24T07:43:49.840Z,7.77
2022-09-24T07:44:53.810Z,6.90
2022-09-24T07:45:55.911Z,6.83
2022-09-24T07:46:58.353Z,6.90
2022-09-24T07:48:05.012Z,7.07
2022-09-24T07:49:06.339Z,7.13
2022-09-24T07:50:07.808Z,6.83
2022-09-24T07:51:09.935Z,8.03
2022-09-24T07:52:11.522Z,7.03
2022-09-24T07:53:13.193Z,6.53
2022-09-24T07:54:17.245Z,6.60
2022-09-24T07:55:19.228Z,7.00
2022-09-24T07:56:20.732Z,6.73
2022-09-24T07:57:22.197Z,7.07
2022-09-24T07:58:23.731Z,7.33
2022-09-24T07:59:25.840Z,7.27
2022-09-24T08:00:27.165Z,7.10
2022-09-24T08:01:28.528Z,7.30
2022-09-24T08:02:29.868Z,7.00
2022-09-24T08:03:36.082Z,7.20
2022-09-24T08:04:38.908Z,8.20
2022-09-24T08:05:45.299Z,9.47
2022-09-24T08:06:47.814Z,8.40
2022-09-24T08:07:52.906Z,8.00
2022-09-24T08:08:55.893Z,8.03
2022-09-24T08:09:57.169Z,7.30
2022-09-24T08:11:03.769Z,7.20
2022-09-24T08:12:05.495Z,6.60
2022-09-24T08:13:06.976Z,6.13
2022-09-24T08:14:08.431Z,6.97
2022-09-24T08:15:10.012Z,7.53
2022-09-24T08:16:11.578Z,7.73
2022-09-24T08:17:13.510Z,7.07
2022-09-24T08:18:14.908Z,7.90
2022-09-24T08:19:17.225Z,7.17
2022-09-24T08:20:18.889Z,7.93
2022-09-24T08:21:20.735Z,7.77
2022-09-24T08:22:22.352Z,7.70
2022-09-24T08:23:23.821Z,7.90
2022-09-24T08:24:25.771Z,8.07
2022-09-24T08:25:27.071Z,7.00
2022-09-24T08:26:28.474Z,7.70
2022-09-24T08:27:30.144Z,7.47
2022-09-24T08:28:31.631Z,6.97
2022-09-24T08:29:33.265Z,7.07
2022-09-24T08:30:35.476Z,6.73
2022-09-24T08:31:37.339Z,6.90
2022-09-24T08:32:38.764Z,7.27
2022-09-24T08:33:40.738Z,6.80
2022-09-24T08:34:42.210Z,6.90
2022-09-24T08:35:43.596Z,6.30
2022-09-24T08:36:45.252Z,6.50
2022-09-24T08:37:46.667Z,6.27
2022-09-24T08:38:47.994Z,6.03
2022-09-24T08:39:49.339Z,5.70
2022-09-24T08:40:56.091Z,5.70
2022-09-24T08:42:02.270Z,6.33
2022-09-24T08:43:22.028Z,7.10
2022-09-24T08:44:47.592Z,6.73
2022-09-24T08:46:10.926Z,7.00
2022-09-24T08:47:22.770Z,6.97
2022-09-24T08:48:25.018Z,7.30
2022-09-24T08:49:39.622Z,6.90
2022-09-24T08:50:47.054Z,7.07
2022-09-24T08:52:02.637Z,6.77
2022-09-24T08:53:17.392Z,6.93
2022-09-24T08:54:19.333Z,7.13
2022-09-24T08:55:39.475Z,7.17
2022-09-24T08:56:44.009Z,7.03
2022-09-24T08:57:50.680Z,7.00
2022-09-24T08:58:59.490Z,6.77
2022-09-24T09:00:00.800Z,7.20
2022-09-24T09:01:06.373Z,6.90
2022-09-24T09:02:15.004Z,7.23
2022-09-24T09:03:29.215Z,6.67
2022-09-24T09:04:54.745Z,7.07
2022-09-24T09:05:59.127Z,7.20
2022-09-24T09:07:08.464Z,7.40
2022-09-24T09:08:46.736Z,8.77
2022-09-24T09:09:43.501Z,8.00
2022-09-24T09:10:45.222Z,7.17
2022-09-24T09:11:48.835Z,7.10
2022-09-24T09:12:54.320Z,7.17
2022-09-24T09:13:58.723Z,6.47
2022-09-24T09:15:00.234Z,6.57
2022-09-24T09:16:05.848Z,6.40
2022-09-24T09:17:22.285Z,6.50
2022-09-24T09:18:28.672Z,6.60
2022-09-24T09:19:33.464Z,6.60
2022-09-24T09:20:42.305Z,6.47
2022-09-24T09:21:46.728Z,5.73
2022-09-24T09:22:49.419Z,7.20
2022-09-24T09:23:51.610Z,7.07
2022-09-24T09:24:57.583Z,7.10
2022-09-24T09:26:02.678Z,6.60
2022-09-24T09:27:10.991Z,6.60
2022-09-24T09:28:15.030Z,6.80
2022-09-24T09:29:16.942Z,6.50
2022-09-24T09:30:20.173Z,6.43
2022-09-24T09:31:22.596Z,6.10
2022-09-24T09:32:35.465Z,6.00
2022-09-24T09:34:00.611Z,5.93
2022-09-24T09:35:24.157Z,5.60
2022-09-24T09:36:45.931Z,6.67
2022-09-24T09:37:54.164Z,6.43
2022-09-24T09:39:05.237Z,6.30
2022-09-24T09:40:33.196Z,5.80
2022-09-24T09:41:43.957Z,5.50
2022-09-24T09:42:45.693Z,6.50
2022-09-24T09:43:47.116Z,5.80
2022-09-24T09:44:49.463Z,5.67
2022-09-24T09:45:56.729Z,6.20
2022-09-24T09:47:03.900Z,5.80
2022-09-24T09:48:05.632Z,5.43
2022-09-24T09:49:07.222Z,5.87
2022-09-24T09:50:26.646Z,5.83
2022-09-24T09:51:30.443Z,5.77
2022-09-24T09:52:36.856Z,6.00
2022-09-24T09:53:40.063Z,5.10
2022-09-24T09:54:42.106Z,5.60
2022-09-24T09:55:43.775Z,5.27
2022-09-24T09:56:47.390Z,5.00
2022-09-24T09:57:48.934Z,5.27
2022-09-24T09:58:55.770Z,5.20
2022-09-24T09:59:57.436Z,4.80
2022-09-24T10:01:09.607Z,5.10
2022-09-24T10:02:15.930Z,5.20
2022-09-24T10:03:28.560Z,4.87
2022-09-24T10:04:37.504Z,4.77
2022-09-24T10:05:38.782Z,4.87
2022-09-24T10:06:40.191Z,4.90
2022-09-24T10:07:44.972Z,5.00
2022-09-24T10:08:46.417Z,5.40
2022-09-24T10:09:57.662Z,5.10
2022-09-24T10:11:00.197Z,5.30
2022-09-24T10:12:18.400Z,5.00
2022-09-24T10:13:19.772Z,4.90
2022-09-24T10:14:21.730Z,5.67
2022-09-24T10:15:24.649Z,4.40
2022-09-24T10:16:26.142Z,4.93
2022-09-24T10:17:29.163Z,4.67
2022-09-24T10:18:33.737Z,4.90
2022-09-24T10:19:36.544Z,4.77
2022-09-24T10:20:38.013Z,4.77
2022-09-24T10:21:39.351Z,4.70
2022-09-24T10:22:45.419Z,5.00
2022-09-24T10:23:49.815Z,4.97
2022-09-24T10:24:51.521Z,4.97
2022-09-24T10:25:59.849Z,4.67
2022-09-24T10:27:01.395Z,4.83
2022-09-24T10:28:25.877Z,4.97
2022-09-24T10:29:50.521Z,5.13
2022-09-24T10:30:56.594Z,5.20
2022-09-24T10:31:58.044Z,5.60
2022-09-24T10:33:00.747Z,4.73
2022-09-24T10:34:02.497Z,5.20
2022-09-24T10:35:18.797Z,4.90
2022-09-24T10:36:22.254Z,4.60
2022-09-24T10:37:24.009Z,5.03
2022-09-24T10:38:25.619Z,4.90
2022-09-24T10:39:26.926Z,5.63
2022-09-24T10:40:30.908Z,5.47
2022-09-24T10:41:32.602Z,5.57
2022-09-24T10:42:33.946Z,5.17
2022-09-24T10:43:36.517Z,5.63
2022-09-24T10:44:38.388Z,5.93
2022-09-24T10:45:50.265Z,5.63
2022-09-24T10:47:07.997Z,5.30
2022-09-24T10:48:09.318Z,5.00
2022-09-24T10:49:30.854Z,5.50
2022-09-24T10:50:40.559Z,5.63
2022-09-24T10:51:41.815Z,5.20
2022-09-24T10:53:01.875Z,5.50
2022-09-24T10:54:12.469Z,5.10
2022-09-24T10:55:25.673Z,6.07
2022-09-24T10:56:33.487Z,5.13
2022-09-24T10:57:39.703Z,5.00
2022-09-24T10:58:56.026Z,5.23
2022-09-24T11:00:02.781Z,4.97
2022-09-24T11:01:06.948Z,4.97
2022-09-24T11:02:21.804Z,5.50
2022-09-24T11:03:36.666Z,4.77
2022-09-24T11:04:50.693Z,4.87
2022-09-24T11:06:21.170Z,4.40
2022-09-24T11:07:41.091Z,4.97
2022-09-24T11:08:58.224Z,4.50
2022-09-24T11:10:18.289Z,4.33
2022-09-24T11:11:26.096Z,4.90
2022-09-24T11:12:45.692Z,4.70
2022-09-24T11:14:02.600Z,4.60
2022-09-24T11:15:19.262Z,4.70
2022-09-24T11:16:39.418Z,4.63
2022-09-24T11:17:49.812Z,4.80
2022-09-24T11:18:54.209Z,4.53
2022-09-24T11:20:03.700Z,4.40
2022-09-24T11:21:23.865Z,5.30
2022-09-24T11:22:44.204Z,4.60
2022-09-24T11:23:48.239Z,4.57
2022-09-24T11:25:11.138Z,4.73
2022-09-24T11:26:15.162Z,4.40
2022-09-24T11:27:29.131Z,4.93
2022-09-24T11:28:38.567Z,5.23
2022-09-24T11:29:39.817Z,4.57
2022-09-24T11:30:50.607Z,4.77
2022-09-24T11:32:07.030Z,4.60
2022-09-24T11:33:11.451Z,4.70
2022-09-24T11:34:22.605Z,4.73
2022-09-24T11:35:29.909Z,4.83
2022-09-24T11:36:41.448Z,4.27
2022-09-24T11:37:42.728Z,4.63
2022-09-24T11:38:53.289Z,4.50
2022-09-24T11:40:06.931Z,4.43
2022-09-24T11:41:21.265Z,3.93
2022-09-24T11:42:26.008Z,4.10
2022-09-24T11:43:46.002Z,4.37
2022-09-24T11:44:59.322Z,3.90
2022-09-24T11:46:18.732Z,4.37
2022-09-24T11:47:27.532Z,4.20
2022-09-24T11:48:40.948Z,4.33
2022-09-24T11:49:45.383Z,3.50
2022-09-24T11:50:55.974Z,4.10
2022-09-24T11:52:02.021Z,3.73
2022-09-24T11:53:08.906Z,3.73
2022-09-24T11:54:24.646Z,3.67
2022-09-24T11:55:51.631Z,3.80
2022-09-24T11:56:57.463Z,4.03
2022-09-24T11:58:01.789Z,3.80
2022-09-24T11:59:13.607Z,3.53
2022-09-24T12:00:16.231Z,4.40
2022-09-24T12:01:23.279Z,4.30
2022-09-24T12:02:28.000Z,4.70
2022-09-24T12:03:36.550Z,4.23
2022-09-24T12:04:48.105Z,4.30
2022-09-24T12:05:56.932Z,4.00
2022-09-24T12:07:02.792Z,4.00
2022-09-24T12:08:16.295Z,4.00
2022-09-24T12:09:21.887Z,3.93
2022-09-24T12:10:25.398Z,4.07
2022-09-24T12:11:33.445Z,4.00
2022-09-24T12:12:39.978Z,3.57
2022-09-24T12:13:42.705Z,4.10
2022-09-24T12:14:44.937Z,3.90
2022-09-24T12:15:49.093Z,3.87
2022-09-24T12:16:53.754Z,3.80
2022-09-24T12:17:57.929Z,3.37
2022-09-24T12:19:17.895Z,3.63
2022-09-24T12:20:26.334Z,3.87
2022-09-24T12:21:47.718Z,3.97
2022-09-24T12:22:50.396Z,3.93
2022-09-24T12:23:52.570Z,4.30
2022-09-24T12:24:54.865Z,4.20
2022-09-24T12:25:58.152Z,4.13
2022-09-24T12:27:01.420Z,3.90
2022-09-24T12:28:02.923Z,3.90
2022-09-24T12:29:42.586Z,3.17
2022-09-24T12:31:12.510Z,3.10
2022-09-24T12:32:38.643Z,3.30
2022-09-24T12:33:43.466Z,3.97
2022-09-24T12:35:07.582Z,3.92
2022-09-24T12:36:12.983Z,3.80
2022-09-24T12:37:16.759Z,4.07
2022-09-24T12:38:19.954Z,3.97
2022-09-24T12:39:22.374Z,4.83
2022-09-24T12:40:42.630Z,4.43
2022-09-24T12:41:46.607Z,3.80
2022-09-24T12:42:52.607Z,3.90
2022-09-24T12:43:59.024Z,4.43
2022-09-24T12:45:00.846Z,4.03
2022-09-24T12:46:03.740Z,4.63
2022-09-24T12:47:06.133Z,5.07
2022-09-24T12:48:14.038Z,6.07
2022-09-24T12:49:18.386Z,4.77
2022-09-24T12:50:21.729Z,3.87
2022-09-24T12:51:24.009Z,3.70
2022-09-24T12:52:32.440Z,3.25
2022-09-24T12:53:35.191Z,3.63
2022-09-24T12:54:37.306Z,3.47
2022-09-24T12:55:44.975Z,4.53
2022-09-24T12:56:46.417Z,4.10
2022-09-24T12:57:53.442Z,4.50
2022-09-24T12:58:54.949Z,4.20
2022-09-24T12:59:57.531Z,4.50
2022-09-24T13:01:06.269Z,4.80
2022-09-24T13:02:15.259Z,5.30
2022-09-24T13:03:31.273Z,4.20
2022-09-24T13:04:32.853Z,3.55
2022-09-24T13:05:43.725Z,3.78
2022-09-24T13:06:48.015Z,3.88
2022-09-24T13:08:00.709Z,3.57
2022-09-24T13:09:03.625Z,3.78
2022-09-24T13:10:31.115Z,3.50
2022-09-24T13:11:34.867Z,3.17
2022-09-24T13:12:36.407Z,3.33
2022-09-24T13:13:42.105Z,3.28
2022-09-24T13:14:49.148Z,3.47
2022-09-24T13:15:59.083Z,3.00
2022-09-24T13:17:05.052Z,3.17
2022-09-24T13:18:22.223Z,3.57
2022-09-24T13:19:34.183Z,3.57
2022-09-24T13:20:36.287Z,3.17
2022-09-24T13:21:39.915Z,3.63
2022-09-24T13:22:41.281Z,3.63
2022-09-24T13:23:44.369Z,3.65
2022-09-24T13:24:47.483Z,4.10
2022-09-24T13:25:58.919Z,3.97
2022-09-24T13:27:21.487Z,4.03
2022-09-24T13:28:25.348Z,4.00
2022-09-24T13:29:26.945Z,4.53
2022-09-24T13:30:36.886Z,4.22
2022-09-24T13:31:49.230Z,3.80
2022-09-24T13:33:04.489Z,3.80
2022-09-24T13:34:15.434Z,4.10
2022-09-24T13:35:22.780Z,3.95
2022-09-24T13:36:33.125Z,3.83
2022-09-24T13:37:42.566Z,4.40
2022-09-24T13:38:48.465Z,4.05
2022-09-24T13:39:52.850Z,4.20
2022-09-24T13:40:58.083Z,3.78
2022-09-24T13:42:04.053Z,3.67
2022-09-24T13:43:10.730Z,3.40
2022-09-24T13:44:24.920Z,3.38
2022-09-24T13:45:26.885Z,3.65
2022-09-24T13:46:29.964Z,3.65
2022-09-24T13:47:42.508Z,4.03
2022-09-24T13:49:06.202Z,4.00
2022-09-24T13:50:07.566Z,4.63
2022-09-24T13:51:13.227Z,3.88
2022-09-24T13:52:24.883Z,3.75
2022-09-24T13:53:30.300Z,3.60
2022-09-24T13:54:34.403Z,3.67
2022-09-24T13:55:49.797Z,3.83
2022-09-24T13:56:59.636Z,3.53
2022-09-24T13:58:00.981Z,3.93
2022-09-24T13:59:04.907Z,3.60
2022-09-24T14:00:23.819Z,3.38
2022-09-24T14:01:30.162Z,3.72
2022-09-24T14:02:34.481Z,3.83
2022-09-24T14:03:37.392Z,3.53
2022-09-24T14:04:42.344Z,3.53
2022-09-24T14:05:43.842Z,3.50
2022-09-24T14:06:50.719Z,3.40
2022-09-24T14:07:53.552Z,3.35
2022-09-24T14:08:54.960Z,3.88
2022-09-24T14:10:04.677Z,3.22
2022-09-24T14:11:11.721Z,3.55
2022-09-24T14:12:24.709Z,3.72
2022-09-24T14:13:26.669Z,4.53
2022-09-24T14:14:29.126Z,5.32
2022-09-24T14:15:30.468Z,4.03
2022-09-24T14:16:31.992Z,3.40
2022-09-24T14:17:33.381Z,4.00
2022-09-24T14:18:34.766Z,3.88
2022-09-24T14:19:36.212Z,3.83
2022-09-24T14:20:37.587Z,3.85
2022-09-24T14:21:41.118Z,3.97
2022-09-24T14:22:44.334Z,3.42
2022-09-24T14:23:57.352Z,3.55